sensor_id;sensor_type;location;lat;lon;timestamp;P1;durP1;ratioP1;P2;durP2;ratioP2
81544;SDS011;70990;50.618;7.346;2023-07-29T00:01:49;3.17;;;1.13;;
81544;SDS011;70990;50.618;7.346;2023-07-29T00:04:16;2.17;;;1.02;;
81544;SDS011;70990;50.618;7.346;2023-07-29T00:06:43;2.15;;;1.10;;
81544;SDS011;70990;50.618;7.346;2023-07-29T00:09:09;2.50;;;1.20;;
81544;SDS011;70990;50.618;7.346;2023-07-29T00:11:36;1.73;;;1.02;;
81544;SDS011;70990;50.618;7.346;2023-07-29T00:14:03;3.20;;;1.60;;
81544;SDS011;70990;50.618;7.346;2023-07-29T00:16:29;2.20;;;1.00;;
81544;SDS011;70990;50.618;7.346;2023-07-29T00:18:56;4.18;;;1.05;;
81544;SDS011;70990;50.618;7.346;2023-07-29T00:21:23;3.22;;;1.13;;
81544;SDS011;70990;50.618;7.346;2023-07-29T00:23:49;1.73;;;0.98;;
81544;SDS011;70990;50.618;7.346;2023-07-29T00:26:16;2.60;;;1.05;;
81544;SDS011;70990;50.618;7.346;2023-07-29T00:28:42;3.08;;;1.60;;
81544;SDS011;70990;50.618;7.346;2023-07-29T00:31:09;4.85;;;1.20;;
81544;SDS011;70990;50.618;7.346;2023-07-29T00:33:35;3.50;;;1.30;;
81544;SDS011;70990;50.618;7.346;2023-07-29T00:36:02;3.42;;;1.40;;
81544;SDS011;70990;50.618;7.346;2023-07-29T00:38:28;3.17;;;1.38;;
81544;SDS011;70990;50.618;7.346;2023-07-29T00:40:56;2.20;;;1.27;;
81544;SDS011;70990;50.618;7.346;2023-07-29T00:43:23;4.30;;;1.20;;
81544;SDS011;70990;50.618;7.346;2023-07-29T00:45:50;2.58;;;1.20;;
81544;SDS011;70990;50.618;7.346;2023-07-29T00:48:16;2.72;;;1.38;;
81544;SDS011;70990;50.618;7.346;2023-07-29T00:50:43;3.08;;;1.60;;
81544;SDS011;70990;50.618;7.346;2023-07-29T00:53:10;3.58;;;1.35;;
81544;SDS011;70990;50.618;7.346;2023-07-29T00:55:36;2.33;;;1.27;;
81544;SDS011;70990;50.618;7.346;2023-07-29T00:58:03;4.22;;;1.40;;
81544;SDS011;70990;50.618;7.346;2023-07-29T01:00:31;4.57;;;1.38;;
81544;SDS011;70990;50.618;7.346;2023-07-29T01:02:58;3.63;;;1.40;;
81544;SDS011;70990;50.618;7.346;2023-07-29T01:05:26;3.30;;;1.58;;
81544;SDS011;70990;50.618;7.346;2023-07-29T01:08:12;4.45;;;1.50;;
81544;SDS011;70990;50.618;7.346;2023-07-29T01:11:01;3.67;;;1.30;;
81544;SDS011;70990;50.618;7.346;2023-07-29T01:13:41;4.50;;;1.40;;
81544;SDS011;70990;50.618;7.346;2023-07-29T01:16:17;4.43;;;1.55;;
81544;SDS011;70990;50.618;7.346;2023-07-29T01:18:50;3.50;;;1.30;;
81544;SDS011;70990;50.618;7.346;2023-07-29T01:21:20;5.05;;;1.50;;
81544;SDS011;70990;50.618;7.346;2023-07-29T01:23:51;3.20;;;1.33;;
81544;SDS011;70990;50.618;7.346;2023-07-29T01:26:19;4.38;;;1.50;;
81544;SDS011;70990;50.618;7.346;2023-07-29T01:28:45;3.70;;;1.25;;
81544;SDS011;70990;50.618;7.346;2023-07-29T01:31:18;2.95;;;1.20;;
81544;SDS011;70990;50.618;7.346;2023-07-29T01:33:53;4.70;;;1.10;;
81544;SDS011;70990;50.618;7.346;2023-07-29T01:36:32;2.88;;;1.23;;
81544;SDS011;70990;50.618;7.346;2023-07-29T01:39:03;2.55;;;1.10;;
81544;SDS011;70990;50.618;7.346;2023-07-29T01:41:32;3.42;;;1.10;;
81544;SDS011;70990;50.618;7.346;2023-07-29T01:44:04;2.55;;;1.20;;
81544;SDS011;70990;50.618;7.346;2023-07-29T01:46:35;1.80;;;1.02;;
81544;SDS011;70990;50.618;7.346;2023-07-29T01:49:06;3.00;;;1.10;;
81544;SDS011;70990;50.618;7.346;2023-07-29T01:51:36;2.63;;;1.15;;
81544;SDS011;70990;50.618;7.346;2023-07-29T01:54:02;3.70;;;1.20;;
81544;SDS011;70990;50.618;7.346;2023-07-29T01:56:29;3.28;;;1.30;;
81544;SDS011;70990;50.618;7.346;2023-07-29T01:58:59;6.05;;;1.35;;
81544;SDS011;70990;50.618;7.346;2023-07-29T02:01:27;2.88;;;1.30;;
81544;SDS011;70990;50.618;7.346;2023-07-29T02:04:03;4.20;;;1.02;;
81544;SDS011;70990;50.618;7.346;2023-07-29T02:06:35;3.72;;;1.65;;
81544;SDS011;70990;50.618;7.346;2023-07-29T02:09:06;2.65;;;1.42;;
81544;SDS011;70990;50.618;7.346;2023-07-29T02:11:33;3.13;;;1.33;;
81544;SDS011;70990;50.618;7.346;2023-07-29T02:13:59;3.20;;;1.30;;
81544;SDS011;70990;50.618;7.346;2023-07-29T02:16:26;3.72;;;1.48;;
81544;SDS011;70990;50.618;7.346;2023-07-29T02:18:53;2.72;;;1.20;;
81544;SDS011;70990;50.618;7.346;2023-07-29T02:21:22;3.58;;;1.20;;
81544;SDS011;70990;50.618;7.346;2023-07-29T02:23:49;3.97;;;1.58;;
81544;SDS011;70990;50.618;7.346;2023-07-29T02:26:16;2.35;;;1.13;;
81544;SDS011;70990;50.618;7.346;2023-07-29T02:28:44;4.70;;;1.33;;
81544;SDS011;70990;50.618;7.346;2023-07-29T02:31:15;3.95;;;1.30;;
81544;SDS011;70990;50.618;7.346;2023-07-29T02:33:44;5.47;;;1.30;;
81544;SDS011;70990;50.618;7.346;2023-07-29T02:36:11;5.03;;;1.33;;
81544;SDS011;70990;50.618;7.346;2023-07-29T02:38:39;2.08;;;1.02;;
81544;SDS011;70990;50.618;7.346;2023-07-29T02:41:08;3.60;;;1.80;;
81544;SDS011;70990;50.618;7.346;2023-07-29T02:43:36;3.15;;;1.50;;
81544;SDS011;70990;50.618;7.346;2023-07-29T02:46:02;3.50;;;1.45;;
81544;SDS011;70990;50.618;7.346;2023-07-29T02:48:29;2.88;;;1.25;;
81544;SDS011;70990;50.618;7.346;2023-07-29T02:50:57;5.43;;;1.50;;
81544;SDS011;70990;50.618;7.346;2023-07-29T02:53:24;3.65;;;1.30;;
81544;SDS011;70990;50.618;7.346;2023-07-29T02:55:50;5.47;;;2.42;;
81544;SDS011;70990;50.618;7.346;2023-07-29T02:58:19;3.28;;;1.13;;
81544;SDS011;70990;50.618;7.346;2023-07-29T03:00:45;7.93;;;1.65;;
81544;SDS011;70990;50.618;7.346;2023-07-29T03:03:12;2.47;;;1.17;;
81544;SDS011;70990;50.618;7.346;2023-07-29T03:05:39;4.55;;;1.50;;
81544;SDS011;70990;50.618;7.346;2023-07-29T03:08:06;4.07;;;1.35;;
81544;SDS011;70990;50.618;7.346;2023-07-29T03:10:34;3.05;;;1.10;;
81544;SDS011;70990;50.618;7.346;2023-07-29T03:13:01;3.33;;;1.52;;
81544;SDS011;70990;50.618;7.346;2023-07-29T03:15:28;6.15;;;1.38;;
81544;SDS011;70990;50.618;7.346;2023-07-29T03:17:55;2.95;;;1.40;;
81544;SDS011;70990;50.618;7.346;2023-07-29T03:20:21;5.20;;;1.40;;
81544;SDS011;70990;50.618;7.346;2023-07-29T03:22:48;3.90;;;1.50;;
81544;SDS011;70990;50.618;7.346;2023-07-29T03:25:14;4.00;;;1.20;;
81544;SDS011;70990;50.618;7.346;2023-07-29T03:27:41;3.20;;;1.45;;
81544;SDS011;70990;50.618;7.346;2023-07-29T03:30:08;3.28;;;1.25;;
81544;SDS011;70990;50.618;7.346;2023-07-29T03:32:35;2.78;;;1.10;;
81544;SDS011;70990;50.618;7.346;2023-07-29T03:35:03;4.68;;;1.55;;
81544;SDS011;70990;50.618;7.346;2023-07-29T03:37:30;4.28;;;1.40;;
81544;SDS011;70990;50.618;7.346;2023-07-29T03:39:57;5.03;;;1.70;;
81544;SDS011;70990;50.618;7.346;2023-07-29T03:42:23;2.70;;;1.20;;
81544;SDS011;70990;50.618;7.346;2023-07-29T03:44:50;3.08;;;1.33;;
81544;SDS011;70990;50.618;7.346;2023-07-29T03:47:18;2.55;;;1.20;;
81544;SDS011;70990;50.618;7.346;2023-07-29T03:49:45;2.42;;;1.27;;
81544;SDS011;70990;50.618;7.346;2023-07-29T03:52:16;4.93;;;1.40;;
81544;SDS011;70990;50.618;7.346;2023-07-29T03:54:42;4.40;;;1.67;;
81544;SDS011;70990;50.618;7.346;2023-07-29T03:57:09;4.40;;;1.80;;
81544;SDS011;70990;50.618;7.346;2023-07-29T03:59:35;4.28;;;1.67;;
81544;SDS011;70990;50.618;7.346;2023-07-29T04:02:02;4.95;;;1.30;;
81544;SDS011;70990;50.618;7.346;2023-07-29T04:04:32;3.13;;;1.30;;
81544;SDS011;70990;50.618;7.346;2023-07-29T04:07:00;2.00;;;1.00;;
81544;SDS011;70990;50.618;7.346;2023-07-29T04:09:29;6.00;;;1.10;;
81544;SDS011;70990;50.618;7.346;2023-07-29T04:11:56;3.13;;;1.13;;
81544;SDS011;70990;50.618;7.346;2023-07-29T04:14:23;1.85;;;0.93;;
81544;SDS011;70990;50.618;7.346;2023-07-29T04:16:50;2.33;;;1.20;;
81544;SDS011;70990;50.618;7.346;2023-07-29T04:19:16;2.78;;;1.25;;
81544;SDS011;70990;50.618;7.346;2023-07-29T04:21:43;2.17;;;1.13;;
81544;SDS011;70990;50.618;7.346;2023-07-29T04:24:09;2.95;;;1.05;;
81544;SDS011;70990;50.618;7.346;2023-07-29T04:26:36;2.08;;;1.13;;
81544;SDS011;70990;50.618;7.346;2023-07-29T04:29:03;3.25;;;1.10;;
81544;SDS011;70990;50.618;7.346;2023-07-29T04:31:30;1.70;;;0.98;;
81544;SDS011;70990;50.618;7.346;2023-07-29T04:33:56;1.92;;;0.85;;
81544;SDS011;70990;50.618;7.346;2023-07-29T04:36:23;2.08;;;1.08;;
81544;SDS011;70990;50.618;7.346;2023-07-29T04:38:49;2.83;;;1.08;;
81544;SDS011;70990;50.618;7.346;2023-07-29T04:41:16;2.22;;;1.00;;
81544;SDS011;70990;50.618;7.346;2023-07-29T04:43:42;2.67;;;0.95;;
81544;SDS011;70990;50.618;7.346;2023-07-29T04:46:09;2.47;;;1.10;;
81544;SDS011;70990;50.618;7.346;2023-07-29T04:48:36;4.20;;;1.25;;
81544;SDS011;70990;50.618;7.346;2023-07-29T04:51:03;2.47;;;0.90;;
81544;SDS011;70990;50.618;7.346;2023-07-29T04:53:29;1.88;;;0.98;;
81544;SDS011;70990;50.618;7.346;2023-07-29T04:55:56;3.30;;;0.90;;
81544;SDS011;70990;50.618;7.346;2023-07-29T04:58:23;2.30;;;0.75;;
81544;SDS011;70990;50.618;7.346;2023-07-29T05:00:49;3.30;;;0.70;;
81544;SDS011;70990;50.618;7.346;2023-07-29T05:03:17;1.80;;;0.70;;
81544;SDS011;70990;50.618;7.346;2023-07-29T05:05:43;1.80;;;0.98;;
81544;SDS011;70990;50.618;7.346;2023-07-29T05:08:10;1.70;;;0.88;;
81544;SDS011;70990;50.618;7.346;2023-07-29T05:10:37;1.80;;;0.90;;
81544;SDS011;70990;50.618;7.346;2023-07-29T05:13:03;2.85;;;0.80;;
81544;SDS011;70990;50.618;7.346;2023-07-29T05:15:30;1.75;;;0.80;;
81544;SDS011;70990;50.618;7.346;2023-07-29T05:17:56;2.65;;;1.02;;
81544;SDS011;70990;50.618;7.346;2023-07-29T05:20:23;2.10;;;1.10;;
81544;SDS011;70990;50.618;7.346;2023-07-29T05:22:50;1.33;;;0.80;;
81544;SDS011;70990;50.618;7.346;2023-07-29T05:25:16;2.63;;;1.02;;
81544;SDS011;70990;50.618;7.346;2023-07-29T05:27:43;1.75;;;0.80;;
81544;SDS011;70990;50.618;7.346;2023-07-29T05:30:09;3.13;;;1.13;;
81544;SDS011;70990;50.618;7.346;2023-07-29T05:32:36;2.25;;;1.17;;
81544;SDS011;70990;50.618;7.346;2023-07-29T05:35:05;1.73;;;0.88;;
81544;SDS011;70990;50.618;7.346;2023-07-29T05:37:32;1.92;;;0.88;;
81544;SDS011;70990;50.618;7.346;2023-07-29T05:39:58;2.60;;;0.90;;
81544;SDS011;70990;50.618;7.346;2023-07-29T05:42:25;1.73;;;0.85;;
81544;SDS011;70990;50.618;7.346;2023-07-29T05:44:52;2.15;;;1.00;;
81544;SDS011;70990;50.618;7.346;2023-07-29T05:47:19;3.17;;;1.10;;
81544;SDS011;70990;50.618;7.346;2023-07-29T05:49:46;3.15;;;1.50;;
81544;SDS011;70990;50.618;7.346;2023-07-29T05:52:13;1.75;;;0.90;;
81544;SDS011;70990;50.618;7.346;2023-07-29T05:54:39;3.38;;;1.02;;
81544;SDS011;70990;50.618;7.346;2023-07-29T05:57:06;8.15;;;3.20;;
81544;SDS011;70990;50.618;7.346;2023-07-29T05:59:32;13.90;;;5.82;;
81544;SDS011;70990;50.618;7.346;2023-07-29T06:01:59;5.65;;;2.05;;
81544;SDS011;70990;50.618;7.346;2023-07-29T06:04:25;5.95;;;2.78;;
81544;SDS011;70990;50.618;7.346;2023-07-29T06:06:52;2.58;;;1.42;;
81544;SDS011;70990;50.618;7.346;2023-07-29T06:09:18;4.68;;;1.90;;
81544;SDS011;70990;50.618;7.346;2023-07-29T06:11:45;10.50;;;5.68;;
81544;SDS011;70990;50.618;7.346;2023-07-29T06:14:11;10.48;;;5.35;;
81544;SDS011;70990;50.618;7.346;2023-07-29T06:16:40;8.73;;;3.63;;
81544;SDS011;70990;50.618;7.346;2023-07-29T06:19:06;6.35;;;2.65;;
81544;SDS011;70990;50.618;7.346;2023-07-29T06:21:33;3.30;;;1.77;;
81544;SDS011;70990;50.618;7.346;2023-07-29T06:24:00;4.95;;;1.60;;
81544;SDS011;70990;50.618;7.346;2023-07-29T06:26:26;3.40;;;1.70;;
81544;SDS011;70990;50.618;7.346;2023-07-29T06:28:54;2.30;;;0.88;;
81544;SDS011;70990;50.618;7.346;2023-07-29T06:31:20;1.50;;;1.00;;
81544;SDS011;70990;50.618;7.346;2023-07-29T06:33:47;2.30;;;0.90;;
81544;SDS011;70990;50.618;7.346;2023-07-29T06:36:13;2.70;;;1.00;;
81544;SDS011;70990;50.618;7.346;2023-07-29T06:38:39;2.28;;;1.08;;
81544;SDS011;70990;50.618;7.346;2023-07-29T06:41:06;5.45;;;1.08;;
81544;SDS011;70990;50.618;7.346;2023-07-29T06:43:33;3.92;;;1.00;;
81544;SDS011;70990;50.618;7.346;2023-07-29T06:46:00;4.45;;;1.20;;
81544;SDS011;70990;50.618;7.346;2023-07-29T06:48:26;1.42;;;0.98;;
81544;SDS011;70990;50.618;7.346;2023-07-29T06:50:53;2.30;;;1.10;;
81544;SDS011;70990;50.618;7.346;2023-07-29T06:53:19;1.42;;;0.82;;
81544;SDS011;70990;50.618;7.346;2023-07-29T06:55:46;1.88;;;1.00;;
81544;SDS011;70990;50.618;7.346;2023-07-29T06:58:12;4.57;;;0.95;;
81544;SDS011;70990;50.618;7.346;2023-07-29T07:00:39;2.72;;;1.27;;
81544;SDS011;70990;50.618;7.346;2023-07-29T07:03:05;2.20;;;1.00;;
81544;SDS011;70990;50.618;7.346;2023-07-29T07:05:32;2.03;;;1.00;;
81544;SDS011;70990;50.618;7.346;2023-07-29T07:07:58;1.83;;;0.90;;
81544;SDS011;70990;50.618;7.346;2023-07-29T07:10:25;2.10;;;0.93;;
81544;SDS011;70990;50.618;7.346;2023-07-29T07:12:51;3.35;;;1.10;;
81544;SDS011;70990;50.618;7.346;2023-07-29T07:15:18;2.53;;;1.13;;
81544;SDS011;70990;50.618;7.346;2023-07-29T07:17:44;5.45;;;1.00;;
81544;SDS011;70990;50.618;7.346;2023-07-29T07:20:11;3.55;;;1.13;;
81544;SDS011;70990;50.618;7.346;2023-07-29T07:22:37;3.13;;;1.10;;
81544;SDS011;70990;50.618;7.346;2023-07-29T07:25:04;2.78;;;1.10;;
81544;SDS011;70990;50.618;7.346;2023-07-29T07:27:34;5.53;;;1.00;;
81544;SDS011;70990;50.618;7.346;2023-07-29T07:30:01;2.95;;;1.20;;
81544;SDS011;70990;50.618;7.346;2023-07-29T07:32:27;2.33;;;1.00;;
81544;SDS011;70990;50.618;7.346;2023-07-29T07:34:54;2.35;;;1.15;;
81544;SDS011;70990;50.618;7.346;2023-07-29T07:37:20;2.20;;;1.05;;
81544;SDS011;70990;50.618;7.346;2023-07-29T07:39:46;3.95;;;1.30;;
81544;SDS011;70990;50.618;7.346;2023-07-29T07:42:13;3.22;;;1.00;;
81544;SDS011;70990;50.618;7.346;2023-07-29T07:44:40;5.82;;;1.27;;
81544;SDS011;70990;50.618;7.346;2023-07-29T07:47:06;3.75;;;1.23;;
81544;SDS011;70990;50.618;7.346;2023-07-29T07:49:35;3.45;;;1.40;;
81544;SDS011;70990;50.618;7.346;2023-07-29T07:52:02;2.28;;;1.10;;
81544;SDS011;70990;50.618;7.346;2023-07-29T07:54:29;3.95;;;1.20;;
81544;SDS011;70990;50.618;7.346;2023-07-29T07:56:55;2.47;;;1.02;;
81544;SDS011;70990;50.618;7.346;2023-07-29T07:59:22;2.35;;;1.25;;
81544;SDS011;70990;50.618;7.346;2023-07-29T08:01:48;2.70;;;1.17;;
81544;SDS011;70990;50.618;7.346;2023-07-29T08:04:15;2.30;;;0.90;;
81544;SDS011;70990;50.618;7.346;2023-07-29T08:06:41;2.33;;;1.10;;
81544;SDS011;70990;50.618;7.346;2023-07-29T08:09:08;2.55;;;0.95;;
81544;SDS011;70990;50.618;7.346;2023-07-29T08:11:35;4.95;;;1.20;;
81544;SDS011;70990;50.618;7.346;2023-07-29T08:14:02;2.90;;;1.25;;
81544;SDS011;70990;50.618;7.346;2023-07-29T08:16:28;3.65;;;1.10;;
81544;SDS011;70990;50.618;7.346;2023-07-29T08:18:55;3.25;;;1.10;;
81544;SDS011;70990;50.618;7.346;2023-07-29T08:21:21;3.50;;;1.30;;
81544;SDS011;70990;50.618;7.346;2023-07-29T08:23:48;3.10;;;1.20;;
81544;SDS011;70990;50.618;7.346;2023-07-29T08:26:14;4.40;;;1.38;;
81544;SDS011;70990;50.618;7.346;2023-07-29T08:28:41;2.70;;;1.20;;
81544;SDS011;70990;50.618;7.346;2023-07-29T08:31:07;4.95;;;1.60;;
81544;SDS011;70990;50.618;7.346;2023-07-29T08:33:34;4.22;;;1.13;;
81544;SDS011;70990;50.618;7.346;2023-07-29T08:36:02;4.43;;;1.38;;
81544;SDS011;70990;50.618;7.346;2023-07-29T08:38:29;2.58;;;1.10;;
81544;SDS011;70990;50.618;7.346;2023-07-29T08:41:01;1.75;;;1.00;;
81544;SDS011;70990;50.618;7.346;2023-07-29T08:46:38;3.08;;;1.20;;
81544;SDS011;70990;50.618;7.346;2023-07-29T08:49:06;1.70;;;0.82;;
81544;SDS011;70990;50.618;7.346;2023-07-29T08:51:33;4.05;;;1.50;;
81544;SDS011;70990;50.618;7.346;2023-07-29T08:54:00;1.77;;;1.00;;
81544;SDS011;70990;50.618;7.346;2023-07-29T08:56:27;7.10;;;1.23;;
81544;SDS011;70990;50.618;7.346;2023-07-29T08:58:54;4.10;;;1.10;;
81544;SDS011;70990;50.618;7.346;2023-07-29T09:01:20;3.42;;;1.42;;
81544;SDS011;70990;50.618;7.346;2023-07-29T09:03:47;2.20;;;1.05;;
81544;SDS011;70990;50.618;7.346;2023-07-29T09:06:14;2.33;;;1.17;;
81544;SDS011;70990;50.618;7.346;2023-07-29T09:08:42;2.25;;;1.00;;
81544;SDS011;70990;50.618;7.346;2023-07-29T09:11:10;2.75;;;1.30;;
81544;SDS011;70990;50.618;7.346;2023-07-29T09:13:40;2.58;;;1.23;;
81544;SDS011;70990;50.618;7.346;2023-07-29T09:16:07;3.25;;;1.10;;
81544;SDS011;70990;50.618;7.346;2023-07-29T09:18:33;3.25;;;1.30;;
81544;SDS011;70990;50.618;7.346;2023-07-29T09:21:00;5.93;;;1.38;;
81544;SDS011;70990;50.618;7.346;2023-07-29T09:23:27;2.38;;;1.00;;
81544;SDS011;70990;50.618;7.346;2023-07-29T09:26:02;3.78;;;1.10;;
81544;SDS011;70990;50.618;7.346;2023-07-29T09:28:33;3.58;;;1.30;;
81544;SDS011;70990;50.618;7.346;2023-07-29T09:31:01;2.92;;;1.08;;
81544;SDS011;70990;50.618;7.346;2023-07-29T09:33:29;2.67;;;1.10;;
81544;SDS011;70990;50.618;7.346;2023-07-29T09:35:56;3.03;;;1.15;;
81544;SDS011;70990;50.618;7.346;2023-07-29T09:38:29;3.70;;;1.35;;
81544;SDS011;70990;50.618;7.346;2023-07-29T09:40:56;3.15;;;1.00;;
81544;SDS011;70990;50.618;7.346;2023-07-29T09:43:29;3.47;;;1.17;;
81544;SDS011;70990;50.618;7.346;2023-07-29T09:46:00;2.83;;;1.10;;
81544;SDS011;70990;50.618;7.346;2023-07-29T09:48:27;2.55;;;0.93;;
81544;SDS011;70990;50.618;7.346;2023-07-29T09:50:54;2.17;;;1.10;;
81544;SDS011;70990;50.618;7.346;2023-07-29T09:53:21;4.32;;;1.40;;
81544;SDS011;70990;50.618;7.346;2023-07-29T09:55:48;2.90;;;1.25;;
81544;SDS011;70990;50.618;7.346;2023-07-29T09:58:15;4.47;;;1.20;;
81544;SDS011;70990;50.618;7.346;2023-07-29T10:00:46;2.75;;;1.10;;
81544;SDS011;70990;50.618;7.346;2023-07-29T10:03:20;3.30;;;1.30;;
81544;SDS011;70990;50.618;7.346;2023-07-29T10:05:47;4.43;;;1.20;;
81544;SDS011;70990;50.618;7.346;2023-07-29T10:08:15;3.50;;;1.20;;
81544;SDS011;70990;50.618;7.346;2023-07-29T10:10:42;3.58;;;1.33;;
81544;SDS011;70990;50.618;7.346;2023-07-29T10:13:11;3.85;;;1.35;;
81544;SDS011;70990;50.618;7.346;2023-07-29T10:15:39;2.63;;;1.15;;
81544;SDS011;70990;50.618;7.346;2023-07-29T10:18:10;4.13;;;1.42;;
81544;SDS011;70990;50.618;7.346;2023-07-29T10:20:39;2.65;;;1.13;;
81544;SDS011;70990;50.618;7.346;2023-07-29T10:23:10;5.05;;;1.30;;
81544;SDS011;70990;50.618;7.346;2023-07-29T10:25:41;2.97;;;1.40;;
81544;SDS011;70990;50.618;7.346;2023-07-29T10:28:12;3.15;;;1.30;;
81544;SDS011;70990;50.618;7.346;2023-07-29T10:30:43;4.53;;;1.67;;
81544;SDS011;70990;50.618;7.346;2023-07-29T10:33:10;5.78;;;1.48;;
81544;SDS011;70990;50.618;7.346;2023-07-29T10:35:37;3.08;;;1.20;;
81544;SDS011;70990;50.618;7.346;2023-07-29T10:38:05;3.00;;;1.35;;
81544;SDS011;70990;50.618;7.346;2023-07-29T10:40:50;3.30;;;1.23;;
81544;SDS011;70990;50.618;7.346;2023-07-29T10:43:18;3.63;;;1.30;;
81544;SDS011;70990;50.618;7.346;2023-07-29T10:45:49;5.15;;;1.58;;
81544;SDS011;70990;50.618;7.346;2023-07-29T10:53:54;2.95;;;1.27;;
81544;SDS011;70990;50.618;7.346;2023-07-29T10:56:26;2.47;;;1.10;;
81544;SDS011;70990;50.618;7.346;2023-07-29T10:59:36;3.58;;;1.33;;
81544;SDS011;70990;50.618;7.346;2023-07-29T11:01:51;2.50;;;1.13;;
81544;SDS011;70990;50.618;7.346;2023-07-29T11:04:24;2.47;;;1.10;;
81544;SDS011;70990;50.618;7.346;2023-07-29T11:09:39;2.58;;;1.25;;
81544;SDS011;70990;50.618;7.346;2023-07-29T11:12:32;3.88;;;1.10;;
81544;SDS011;70990;50.618;7.346;2023-07-29T11:20:28;4.63;;;1.20;;
81544;SDS011;70990;50.618;7.346;2023-07-29T11:22:57;2.72;;;1.23;;
81544;SDS011;70990;50.618;7.346;2023-07-29T11:25:27;2.90;;;1.13;;
81544;SDS011;70990;50.618;7.346;2023-07-29T11:27:55;2.38;;;1.10;;
81544;SDS011;70990;50.618;7.346;2023-07-29T11:30:23;3.55;;;1.40;;
81544;SDS011;70990;50.618;7.346;2023-07-29T11:32:50;2.55;;;1.00;;
81544;SDS011;70990;50.618;7.346;2023-07-29T11:35:17;3.40;;;1.27;;
81544;SDS011;70990;50.618;7.346;2023-07-29T11:37:46;4.53;;;1.20;;
81544;SDS011;70990;50.618;7.346;2023-07-29T11:40:14;2.85;;;0.90;;
81544;SDS011;70990;50.618;7.346;2023-07-29T11:42:42;2.80;;;1.60;;
81544;SDS011;70990;50.618;7.346;2023-07-29T11:45:09;3.85;;;1.50;;
81544;SDS011;70990;50.618;7.346;2023-07-29T11:47:36;3.53;;;1.48;;
81544;SDS011;70990;50.618;7.346;2023-07-29T11:50:04;3.72;;;1.40;;
81544;SDS011;70990;50.618;7.346;2023-07-29T11:52:32;3.30;;;1.20;;
81544;SDS011;70990;50.618;7.346;2023-07-29T11:55:00;3.25;;;1.20;;
81544;SDS011;70990;50.618;7.346;2023-07-29T11:57:27;3.42;;;1.52;;
81544;SDS011;70990;50.618;7.346;2023-07-29T11:59:54;2.33;;;1.00;;
81544;SDS011;70990;50.618;7.346;2023-07-29T12:02:21;6.45;;;1.77;;
81544;SDS011;70990;50.618;7.346;2023-07-29T12:04:50;2.65;;;1.10;;
81544;SDS011;70990;50.618;7.346;2023-07-29T12:07:17;5.03;;;1.67;;
81544;SDS011;70990;50.618;7.346;2023-07-29T12:09:44;3.85;;;1.60;;
81544;SDS011;70990;50.618;7.346;2023-07-29T12:12:12;2.00;;;0.98;;
81544;SDS011;70990;50.618;7.346;2023-07-29T12:14:38;1.90;;;0.90;;
81544;SDS011;70990;50.618;7.346;2023-07-29T12:17:09;2.03;;;1.00;;
81544;SDS011;70990;50.618;7.346;2023-07-29T12:19:36;2.40;;;0.98;;
81544;SDS011;70990;50.618;7.346;2023-07-29T12:22:04;3.13;;;1.00;;
81544;SDS011;70990;50.618;7.346;2023-07-29T12:24:32;2.17;;;1.00;;
81544;SDS011;70990;50.618;7.346;2023-07-29T12:27:01;2.45;;;0.90;;
81544;SDS011;70990;50.618;7.346;2023-07-29T12:29:27;3.13;;;0.80;;
81544;SDS011;70990;50.618;7.346;2023-07-29T12:32:01;2.70;;;1.00;;
81544;SDS011;70990;50.618;7.346;2023-07-29T12:34:29;1.65;;;1.00;;
81544;SDS011;70990;50.618;7.346;2023-07-29T12:36:58;1.95;;;0.90;;
81544;SDS011;70990;50.618;7.346;2023-07-29T12:39:26;3.30;;;0.90;;
81544;SDS011;70990;50.618;7.346;2023-07-29T12:41:55;3.38;;;0.80;;
81544;SDS011;70990;50.618;7.346;2023-07-29T12:44:23;1.50;;;0.80;;
81544;SDS011;70990;50.618;7.346;2023-07-29T12:46:51;1.98;;;1.05;;
81544;SDS011;70990;50.618;7.346;2023-07-29T12:49:18;1.48;;;0.82;;
81544;SDS011;70990;50.618;7.346;2023-07-29T12:51:45;1.75;;;0.80;;
81544;SDS011;70990;50.618;7.346;2023-07-29T12:54:11;2.22;;;0.88;;
81544;SDS011;70990;50.618;7.346;2023-07-29T12:56:38;2.67;;;0.90;;
81544;SDS011;70990;50.618;7.346;2023-07-29T12:59:05;2.30;;;0.90;;
81544;SDS011;70990;50.618;7.346;2023-07-29T13:01:32;1.80;;;1.00;;
81544;SDS011;70990;50.618;7.346;2023-07-29T13:03:59;2.75;;;1.00;;
81544;SDS011;70990;50.618;7.346;2023-07-29T13:06:27;2.58;;;1.05;;
81544;SDS011;70990;50.618;7.346;2023-07-29T13:08:57;2.08;;;0.75;;
81544;SDS011;70990;50.618;7.346;2023-07-29T13:11:23;1.48;;;0.85;;
81544;SDS011;70990;50.618;7.346;2023-07-29T13:13:50;1.77;;;0.80;;
81544;SDS011;70990;50.618;7.346;2023-07-29T13:16:16;2.15;;;1.10;;
81544;SDS011;70990;50.618;7.346;2023-07-29T13:18:43;2.40;;;0.90;;
81544;SDS011;70990;50.618;7.346;2023-07-29T13:21:10;1.67;;;0.80;;
81544;SDS011;70990;50.618;7.346;2023-07-29T13:23:37;1.95;;;1.00;;
81544;SDS011;70990;50.618;7.346;2023-07-29T13:26:03;2.97;;;1.20;;
81544;SDS011;70990;50.618;7.346;2023-07-29T13:28:30;2.70;;;1.08;;
81544;SDS011;70990;50.618;7.346;2023-07-29T13:30:56;2.35;;;1.17;;
81544;SDS011;70990;50.618;7.346;2023-07-29T13:33:23;2.80;;;1.10;;
81544;SDS011;70990;50.618;7.346;2023-07-29T13:35:49;2.53;;;1.20;;
81544;SDS011;70990;50.618;7.346;2023-07-29T13:38:18;2.65;;;1.20;;
81544;SDS011;70990;50.618;7.346;2023-07-29T13:40:44;2.63;;;1.25;;
81544;SDS011;70990;50.618;7.346;2023-07-29T13:43:11;3.30;;;1.00;;
81544;SDS011;70990;50.618;7.346;2023-07-29T13:45:37;4.13;;;1.13;;
81544;SDS011;70990;50.618;7.346;2023-07-29T13:48:05;4.10;;;1.30;;
81544;SDS011;70990;50.618;7.346;2023-07-29T13:50:31;3.28;;;1.38;;
81544;SDS011;70990;50.618;7.346;2023-07-29T13:52:58;3.92;;;1.45;;
81544;SDS011;70990;50.618;7.346;2023-07-29T13:55:25;2.33;;;1.00;;
81544;SDS011;70990;50.618;7.346;2023-07-29T13:57:52;4.88;;;1.25;;
81544;SDS011;70990;50.618;7.346;2023-07-29T14:00:19;8.52;;;2.25;;
81544;SDS011;70990;50.618;7.346;2023-07-29T14:02:45;6.90;;;2.03;;
81544;SDS011;70990;50.618;7.346;2023-07-29T14:05:12;6.45;;;1.88;;
81544;SDS011;70990;50.618;7.346;2023-07-29T14:07:39;4.22;;;1.40;;
81544;SDS011;70990;50.618;7.346;2023-07-29T14:10:05;10.45;;;2.22;;
81544;SDS011;70990;50.618;7.346;2023-07-29T14:12:32;4.30;;;1.58;;
81544;SDS011;70990;50.618;7.346;2023-07-29T14:15:00;4.68;;;1.55;;
81544;SDS011;70990;50.618;7.346;2023-07-29T14:17:27;3.30;;;1.50;;
81544;SDS011;70990;50.618;7.346;2023-07-29T14:19:53;3.35;;;1.30;;
81544;SDS011;70990;50.618;7.346;2023-07-29T14:22:20;4.88;;;1.50;;
81544;SDS011;70990;50.618;7.346;2023-07-29T14:24:46;3.63;;;1.40;;
81544;SDS011;70990;50.618;7.346;2023-07-29T14:27:13;5.72;;;1.52;;
81544;SDS011;70990;50.618;7.346;2023-07-29T14:29:40;3.38;;;1.52;;
81544;SDS011;70990;50.618;7.346;2023-07-29T14:32:06;4.25;;;1.60;;
81544;SDS011;70990;50.618;7.346;2023-07-29T14:34:33;7.95;;;2.22;;
81544;SDS011;70990;50.618;7.346;2023-07-29T14:36:59;4.60;;;1.70;;
81544;SDS011;70990;50.618;7.346;2023-07-29T14:39:26;4.95;;;1.48;;
81544;SDS011;70990;50.618;7.346;2023-07-29T14:41:52;4.95;;;1.67;;
81544;SDS011;70990;50.618;7.346;2023-07-29T14:44:19;3.55;;;1.70;;
81544;SDS011;70990;50.618;7.346;2023-07-29T14:46:45;5.40;;;1.80;;
81544;SDS011;70990;50.618;7.346;2023-07-29T14:49:12;6.15;;;1.90;;
81544;SDS011;70990;50.618;7.346;2023-07-29T14:51:39;5.22;;;1.58;;
81544;SDS011;70990;50.618;7.346;2023-07-29T14:54:06;3.97;;;1.60;;
81544;SDS011;70990;50.618;7.346;2023-07-29T14:56:33;3.70;;;1.65;;
81544;SDS011;70990;50.618;7.346;2023-07-29T14:59:00;4.78;;;1.90;;
81544;SDS011;70990;50.618;7.346;2023-07-29T15:01:26;3.28;;;1.50;;
81544;SDS011;70990;50.618;7.346;2023-07-29T15:03:53;4.22;;;1.60;;
81544;SDS011;70990;50.618;7.346;2023-07-29T15:06:20;3.22;;;1.40;;
81544;SDS011;70990;50.618;7.346;2023-07-29T15:08:46;3.28;;;1.40;;